Time;durP1;ratioP1;P1;durP2;ratioP2;P2;SDS_P1;SDS_P2;PMS_P1;PMS_P2;Temp;Humidity;BMP_temperature;BMP_pressure;BME280_temperature;BME280_humidity;BME280_pressure;Samples;Min_cycle;Max_cycle;Signal;HPM_P1;HPM_P2
2021/08/06 00:07:13;;;;;;;5.55;1.48;;;27.60;32.50;;;;;;21207274;27;80718;-68
2021/08/06 00:17:15;;;;;;;6.78;1.35;;;27.40;33.10;;;;;;21225209;27;80856;-67
2021/08/06 00:27:17;;;;;;;9.88;1.85;;;27.20;33.80;;;;;;21206289;27;81755;-67
2021/08/06 00:37:19;;;;;;;4.93;1.80;;;27.10;33.80;;;;;;21205952;27;80801;-70
2021/08/06 00:47:21;;;;;;;9.77;1.75;;;27.00;34.30;;;;;;21224102;27;79895;-67
2021/08/06 00:57:23;;;;;;;8.90;2.42;;;26.80;34.50;;;;;;21208877;27;81826;-67
2021/08/06 01:07:34;;;;;;;4.05;1.25;;;26.70;35.00;;;;;;21218826;27;82262;-69
2021/08/06 01:17:42;;;;;;;7.70;1.38;;;26.60;35.40;;;;;;21218181;27;80599;-69
2021/08/06 01:27:47;;;;;;;9.13;1.88;;;26.50;36.50;;;;;;21235816;27;80669;-67
2021/08/06 01:37:53;;;;;;;8.93;1.70;;;26.20;37.60;;;;;;21234659;27;80919;-66
2021/08/06 01:48:03;;;;;;;8.55;2.13;;;25.90;39.70;;;;;;21234233;27;81816;-66
2021/08/06 01:58:22;;;;;;;9.57;1.83;;;25.80;39.50;;;;;;21216343;27;81592;-67
2021/08/06 02:08:29;;;;;;;11.82;2.05;;;25.80;39.90;;;;;;21231198;27;80963;-67
2021/08/06 02:18:36;;;;;;;7.20;2.08;;;25.70;40.10;;;;;;21213655;27;80755;-66
2021/08/06 02:28:41;;;;;;;7.88;1.52;;;25.40;40.90;;;;;;21231206;27;81108;-67
2021/08/06 02:38:44;;;;;;;7.47;2.33;;;25.30;40.80;;;;;;21230213;27;80844;-67
2021/08/06 02:48:47;;;;;;;10.15;2.50;;;25.20;42.90;;;;;;21211985;27;80670;-67
2021/08/06 02:58:50;;;;;;;10.48;2.63;;;25.00;42.20;;;;;;21228211;27;80038;-66
2021/08/06 03:09:11;;;;;;;13.48;3.40;;;25.00;41.40;;;;;;21228369;27;80466;-65
2021/08/06 03:19:27;;;;;;;13.05;2.58;;;24.90;41.30;;;;;;21210627;27;80475;-65
2021/08/06 03:29:35;;;;;;;12.95;2.45;;;24.80;40.80;;;;;;21209099;27;81191;-65
2021/08/06 03:39:41;;;;;;;11.85;2.00;;;24.70;41.10;;;;;;21225963;27;79941;-66
2021/08/06 03:49:49;;;;;;;10.23;2.03;;;24.50;42.30;;;;;;21208775;27;81160;-66
2021/08/06 03:59:53;;;;;;;12.15;2.55;;;24.30;43.60;;;;;;21206977;27;80757;-66
2021/08/06 04:09:56;;;;;;;13.98;2.95;;;24.20;43.30;;;;;;21225784;27;81643;-69
2021/08/06 04:19:59;;;;;;;10.68;3.50;;;24.00;45.70;;;;;;21226557;27;81071;-67
2021/08/06 04:30:06;;;;;;;10.52;2.65;;;24.00;47.70;;;;;;21207166;27;80616;-67
2021/08/06 04:40:10;;;;;;;9.68;2.00;;;23.80;47.00;;;;;;21237871;27;80783;-66
2021/08/06 04:50:20;;;;;;;11.30;2.75;;;23.70;46.90;;;;;;21237700;27;80077;-66
2021/08/06 05:00:23;;;;;;;8.05;2.58;;;23.60;46.70;;;;;;21218958;27;80060;-66
2021/08/06 05:10:25;;;;;;;10.48;2.28;;;23.50;47.80;;;;;;21236333;27;80906;-67
2021/08/06 05:20:28;;;;;;;10.90;2.63;;;23.50;47.50;;;;;;21234982;27;80763;-66
2021/08/06 05:30:30;;;;;;;6.93;2.50;;;23.40;46.90;;;;;;21234093;27;80741;-67
2021/08/06 05:40:34;;;;;;;9.30;2.65;;;23.30;49.80;;;;;;21234136;27;82239;-66
2021/08/06 05:50:39;;;;;;;14.68;2.50;;;23.30;49.40;;;;;;21215059;27;79963;-66
2021/08/06 06:00:42;;;;;;;4.50;1.80;;;23.30;48.10;;;;;;21232762;27;81815;-67
2021/08/06 06:10:48;;;;;;;7.60;2.22;;;23.40;45.20;;;;;;21232160;27;80868;-67
2021/08/06 06:20:52;;;;;;;15.63;2.97;;;23.60;45.10;;;;;;21232136;27;79875;-69
2021/08/06 06:30:54;;;;;;;9.30;2.83;;;23.70;44.70;;;;;;21230488;27;81050;-66
2021/08/06 06:40:57;;;;;;;12.35;2.70;;;23.90;44.40;;;;;;21212358;27;80997;-69
2021/08/06 06:50:59;;;;;;;14.70;3.85;;;23.90;44.10;;;;;;21212147;27;80652;-68
2021/08/06 07:01:02;;;;;;;8.77;2.75;;;24.00;44.10;;;;;;21210713;27;81099;-67
2021/08/06 07:11:05;;;;;;;15.38;2.60;;;24.20;43.40;;;;;;21210454;27;80000;-67
2021/08/06 07:21:10;;;;;;;11.65;2.78;;;24.40;44.00;;;;;;21211060;27;81890;-67
2021/08/06 07:31:12;;;;;;;7.40;2.08;;;24.60;43.20;;;;;;21227583;27;80632;-67
2021/08/06 07:41:15;;;;;;;32.15;3.58;;;24.80;42.80;;;;;;21209398;27;82329;-66
2021/08/06 07:51:18;;;;;;;5.97;1.52;;;25.00;42.70;;;;;;21209526;27;81142;-67
2021/08/06 08:01:21;;;;;;;6.38;1.73;;;25.20;42.20;;;;;;21207777;27;81959;-66
2021/08/06 08:11:23;;;;;;;8.02;1.70;;;25.50;41.70;;;;;;21237141;27;80833;-66
2021/08/06 08:21:28;;;;;;;5.72;1.50;;;25.70;40.90;;;;;;21223676;27;80849;-66
2021/08/06 08:31:31;;;;;;;6.80;1.52;;;26.00;40.80;;;;;;21222763;27;80993;-67
2021/08/06 08:41:37;;;;;;;5.45;1.92;;;26.50;38.90;;;;;;21221528;27;82814;-65
2021/08/06 08:51:42;;;;;;;8.52;1.77;;;26.70;37.00;;;;;;21220469;27;79740;-67
2021/08/06 09:01:44;;;;;;;7.32;1.77;;;27.10;34.60;;;;;;21220529;27;82248;-66
2021/08/06 09:11:51;;;;;;;7.65;1.80;;;27.40;33.40;;;;;;21237091;27;80770;-66
2021/08/06 09:22:24;;;;;;;5.80;2.30;;;27.50;33.00;;;;;;21218247;27;80717;-66
2021/08/06 09:32:27;;;;;;;9.45;1.90;;;27.90;32.10;;;;;;21236105;27;81162;-67
2021/08/06 09:42:35;;;;;;;3.42;1.50;;;28.00;32.10;;;;;;21216702;27;80732;-68
2021/08/06 09:52:40;;;;;;;4.13;1.13;;;28.40;28.30;;;;;;21216989;27;81457;-68
2021/08/06 10:02:43;;;;;;;4.07;1.15;;;28.60;26.00;;;;;;21233611;27;80717;-65
2021/08/06 10:12:46;;;;;;;3.92;1.35;;;29.00;24.20;;;;;;21233336;27;80586;-67
2021/08/06 10:22:49;;;;;;;3.83;1.33;;;30.00;23.30;;;;;;21235734;27;80094;-66
2021/08/06 10:33:04;;;;;;;5.10;1.38;;;30.60;22.40;;;;;;21212615;27;80965;-68
2021/08/06 10:43:13;;;;;;;3.15;1.38;;;31.60;20.20;;;;;;21213535;27;81670;-66
2021/08/06 10:53:18;;;;;;;3.65;1.20;;;32.90;18.70;;;;;;21213141;27;81271;-68
2021/08/06 11:03:35;;;;;;;2.65;1.45;;;34.70;17.40;;;;;;21226290;27;81174;-65
2021/08/06 11:13:47;;;;;;;4.20;1.23;;;36.20;15.80;;;;;;21203217;27;81748;-66
2021/08/06 11:23:55;;;;;;;2.97;1.25;;;38.10;14.10;;;;;;21210160;27;80925;-69
2021/08/06 11:34:07;;;;;;;5.47;1.70;;;41.40;13.00;;;;;;21209077;27;82076;-67
2021/08/06 11:44:10;;;;;;;3.10;1.13;;;44.40;11.30;;;;;;21208204;27;80659;-69
2021/08/06 11:54:15;;;;;;;1.77;1.10;;;45.50;10.70;;;;;;21227715;27;80586;-67
2021/08/06 12:04:28;;;;;;;2.42;1.10;;;48.00;9.60;;;;;;21226114;27;81233;-67
2021/08/06 12:14:30;;;;;;;5.43;1.20;;;48.30;10.00;;;;;;21204125;27;80537;-68
2021/08/06 12:24:37;;;;;;;1.67;1.15;;;50.20;9.20;;;;;;21206656;27;80257;-68
2021/08/06 12:34:44;;;;;;;3.97;1.30;;;51.20;8.70;;;;;;21205321;27;80568;-67
2021/08/06 12:44:52;;;;;;;;;;;50.10;8.40;;;;;;21224833;27;81589;-66
2021/08/06 12:55:30;;;;;;;3.25;2.10;;;51.60;8.10;;;;;;21234459;27;80937;-68
2021/08/06 13:05:53;;;;;;;2.55;1.90;;;51.90;7.80;;;;;;21237743;27;80040;-67
2021/08/06 13:15:56;;;;;;;1.98;1.60;;;52.70;6.80;;;;;;21206569;27;80683;-66
2021/08/06 13:25:57;;;;;;;2.20;2.00;;;53.30;7.60;;;;;;21237767;27;79951;-64
2021/08/06 13:36:02;;;;;;;2.42;2.10;;;55.40;7.30;;;;;;21235960;27;80861;-68
2021/08/06 13:46:09;;;;;;;4.63;2.60;;;54.80;7.20;;;;;;21221150;27;79948;-69
2021/08/06 13:56:11;;;;;;;2.97;2.30;;;53.50;7.50;;;;;;21217308;27;84504;-70
2021/08/06 14:06:14;;;;;;;4.03;2.85;;;53.50;7.20;;;;;;21234708;27;80695;-66
2021/08/06 14:16:16;;;;;;;3.80;3.38;;;53.50;6.90;;;;;;21215876;27;81989;-67
2021/08/06 14:26:18;;;;;;;6.53;2.88;;;54.60;6.60;;;;;;21232632;27;80299;-71
2021/08/06 14:36:21;;;;;;;5.40;3.60;;;52.70;6.80;;;;;;21232735;27;80772;-68
2021/08/06 14:46:23;;;;;;;4.00;3.35;;;53.70;6.90;;;;;;21231144;27;80875;-67
2021/08/06 14:56:27;;;;;;;4.07;3.63;;;53.50;6.60;;;;;;21208016;27;80940;-67
2021/08/06 15:06:30;;;;;;;3.20;2.90;;;52.50;6.90;;;;;;21223046;27;81355;-68
2021/08/06 15:16:36;;;;;;;5.22;2.78;;;48.10;7.10;;;;;;21205130;27;81812;-65
2021/08/06 15:26:39;;;;;;;2.90;1.83;;;41.20;9.30;;;;;;21223867;27;80347;-64
2021/08/06 15:36:42;;;;;;;4.00;1.83;;;39.10;10.10;;;;;;21203907;27;80300;-70
2021/08/06 15:46:48;;;;;;;4.45;1.42;;;37.70;10.40;;;;;;21206456;27;80740;-66
2021/08/06 15:56:50;;;;;;;3.03;1.70;;;37.30;11.10;;;;;;21224738;27;82127;-67
2021/08/06 16:06:54;;;;;;;1.77;1.35;;;36.80;10.80;;;;;;21206272;27;81808;-67
2021/08/06 16:16:57;;;;;;;4.55;1.73;;;37.00;11.20;;;;;;21205394;27;79852;-66
2021/08/06 16:26:59;;;;;;;4.15;1.30;;;39.80;9.60;;;;;;21207067;27;80793;-65
2021/08/06 16:37:01;;;;;;;1.65;1.20;;;43.80;8.20;;;;;;21220512;27;81786;-66
2021/08/06 16:47:03;;;;;;;5.22;1.30;;;38.90;10.10;;;;;;21220277;27;80830;-66
2021/08/06 16:57:05;;;;;;;4.18;1.10;;;36.50;10.60;;;;;;21218293;27;81001;-65
2021/08/06 17:07:07;;;;;;;2.75;1.30;;;35.60;11.20;;;;;;21236586;27;80763;-69
2021/08/06 17:17:10;;;;;;;1.90;1.50;;;35.90;11.30;;;;;;21216713;27;79971;-67
2021/08/06 17:27:12;;;;;;;3.08;1.55;;;35.40;11.90;;;;;;21216338;27;79994;-67
2021/08/06 17:37:14;;;;;;;2.78;1.92;;;34.60;13.30;;;;;;21232976;27;80709;-69
2021/08/06 17:47:16;;;;;;;5.07;2.22;;;34.20;13.40;;;;;;21234032;27;80914;-65
2021/08/06 17:57:19;;;;;;;3.80;1.92;;;34.40;14.20;;;;;;21213940;27;81965;-67
2021/08/06 18:07:21;;;;;;;6.55;2.30;;;36.60;13.90;;;;;;21213874;27;81043;-68
2021/08/06 18:17:27;;;;;;;6.32;1.77;;;37.20;13.90;;;;;;21213198;27;80695;-66
2021/08/06 18:27:29;;;;;;;5.20;2.15;;;34.60;15.60;;;;;;21211759;27;80019;-66
2021/08/06 18:37:31;;;;;;;4.38;1.55;;;34.00;16.20;;;;;;21211192;27;80926;-66
2021/08/06 18:47:33;;;;;;;6.97;1.73;;;33.00;16.90;;;;;;21210699;27;81207;-65
2021/08/06 18:57:36;;;;;;;5.05;1.38;;;32.50;17.50;;;;;;21208751;27;80776;-66
2021/08/06 19:07:37;;;;;;;4.78;1.58;;;31.70;18.10;;;;;;21209467;27;81175;-66
2021/08/06 19:17:39;;;;;;;5.40;1.75;;;31.20;18.80;;;;;;21226760;27;80043;-69
2021/08/06 19:27:41;;;;;;;3.80;1.50;;;30.90;19.10;;;;;;21208447;27;81817;-67
2021/08/06 19:37:43;;;;;;;4.82;1.75;;;30.70;19.20;;;;;;21226436;27;80780;-68
2021/08/06 19:47:45;;;;;;;4.10;1.90;;;30.30;19.20;;;;;;21206450;27;81166;-64
2021/08/06 19:57:47;;;;;;;5.05;1.60;;;30.10;19.20;;;;;;21204999;27;80681;-65
2021/08/06 20:07:55;;;;;;;3.35;1.88;;;29.90;19.30;;;;;;21229862;27;80676;-66
2021/08/06 20:17:57;;;;;;;6.40;2.20;;;29.60;19.50;;;;;;21234179;27;80708;-66
2021/08/06 20:28:00;;;;;;;3.35;2.20;;;29.50;19.90;;;;;;21233352;27;82076;-66
2021/08/06 20:38:02;;;;;;;5.22;2.30;;;29.30;20.20;;;;;;21233112;27;82033;-67
2021/08/06 20:48:09;;;;;;;11.82;3.60;;;29.00;20.40;;;;;;21233099;27;80732;-66
2021/08/06 20:58:12;;;;;;;6.18;2.40;;;28.90;20.80;;;;;;21231906;27;81961;-65
2021/08/06 21:08:14;;;;;;;5.00;1.90;;;28.60;21.20;;;;;;21231616;27;81095;-66
2021/08/06 21:18:16;;;;;;;3.97;1.90;;;28.40;21.50;;;;;;21220087;27;80762;-69
2021/08/06 21:28:18;;;;;;;6.70;2.00;;;28.20;21.70;;;;;;21217364;27;81080;-68
2021/08/06 21:38:20;;;;;;;2.88;1.83;;;28.10;21.90;;;;;;21233987;27;80675;-67
2021/08/06 21:48:22;;;;;;;4.65;1.45;;;27.90;22.10;;;;;;21215181;27;80818;-69
2021/08/06 21:58:23;;;;;;;5.63;2.25;;;27.80;22.30;;;;;;21213817;27;80120;-65
2021/08/06 22:08:25;;;;;;;3.78;1.70;;;27.70;22.60;;;;;;21232961;27;81801;-67
2021/08/06 22:18:27;;;;;;;3.78;1.33;;;27.50;22.90;;;;;;21214741;27;80717;-70
2021/08/06 22:28:30;;;;;;;4.45;1.88;;;27.40;23.20;;;;;;21210625;27;80024;-67
2021/08/06 22:38:32;;;;;;;4.72;2.25;;;27.30;23.60;;;;;;21211585;27;80979;-66
2021/08/06 22:48:34;;;;;;;6.13;1.75;;;27.20;23.80;;;;;;21229232;27;80469;-66
2021/08/06 22:58:36;;;;;;;6.32;2.38;;;27.00;24.10;;;;;;21229514;27;80820;-71
2021/08/06 23:08:37;;;;;;;6.45;1.90;;;26.90;24.60;;;;;;21229623;27;81797;-66
2021/08/06 23:18:39;;;;;;;4.53;1.92;;;26.70;25.20;;;;;;21209368;27;79962;-66
2021/08/06 23:28:41;;;;;;;4.72;1.75;;;26.50;25.80;;;;;;21208217;27;80524;-66
2021/08/06 23:38:44;;;;;;;6.03;2.20;;;26.30;25.80;;;;;;21207664;27;80563;-66
2021/08/06 23:48:45;;;;;;;3.45;1.60;;;26.30;25.80;;;;;;21207685;27;81792;-66
2021/08/06 23:58:51;;;;;;;3.28;1.50;;;26.30;25.70;;;;;;21206196;27;82475;-65
